Latest Coastal Weather Observations for Gold Coast Seaway

IDQ60701

Issued at 10:21 am EST Tuesday 28 March 2017 (issued every 10 minutes, with the page automatically refreshed every 10 minutes)

About coastal observations | Map of coastal stations | Coastal observations for QLD | Marine services | Other Formats
Station Details ID: 040764 Name: GOLD COAST SEAWAY Lat: -27.94 Lon: 153.43 Height: 2.98 m
Data from the previous 72 hours. | See also: Recent months at Gold Coast Seaway
Date/Time
EST
Temp
°C
Wind Pressure Rain since
9am
mm
Weather Cloud Vis
km
Sea
Height
m
Swell
Dir  Spd
kts
Gust
kts
hPa Trend Height
m
Period
s
Dir
28/10:00am 27.0 WSW 4 5 1014.9 - 0.0 - - - - - - -
28/09:30am 26.5 WSW 4 4 1015.0 - 0.0 - - - - - - -
28/09:00am 26.0 WSW 2 4 1014.9 - 0.2 - - - - - - -
28/08:30am 25.0 WSW 1 4 1014.8 - 0.2 - - - - - - -
28/08:00am 24.0 W 5 6 1014.8 - 0.2 - - - - - - -
28/07:30am 22.8 WSW 5 7 1014.2 - 0.2 - - - - - - -
28/07:00am 21.8 WSW 5 7 1013.8 - 0.2 - - - - - - -
28/06:30am 21.0 SW 6 7 1013.4 - 0.2 - - - - - - -
28/06:00am 20.8 SW 5 6 1013.2 - 0.2 - - - - - - -
28/05:30am 20.8 SW 6 7 1013.0 - 0.2 - - - - - - -
28/05:00am 20.9 SW 7 8 1012.8 - 0.2 - - - - - - -
28/04:30am 20.9 SW 6 7 1012.6 - 0.2 - - - - - - -
28/04:00am 20.9 SW 6 7 1012.4 - 0.2 - - - - - - -
28/03:30am 21.1 SW 6 7 1012.4 - 0.2 - - - - - - -
28/03:00am 21.3 SW 6 7 1012.5 - 0.2 - - - - - - -
28/02:30am 21.6 SW 7 8 1012.9 - 0.2 - - - - - - -
28/02:00am 22.4 SW 5 6 1013.0 - 0.2 - - - - - - -
28/01:30am 23.5 NE 7 10 1013.4 - 0.2 - - - - - - -
28/01:00am 23.8 NE 6 8 1013.8 - 0.2 - - - - - - -
28/12:30am 23.9 NE 8 9 1013.9 - 0.2 - - - - - - -
28/12:00am 23.6 NE 7 9 1014.2 - 0.2 - - - - - - -
 
Date/Time
EST
Temp
°C
Wind Pressure Rain since
9am
mm
Weather Cloud Vis
km
Sea
Height
m
Swell
Dir  Spd
kts
Gust
kts
hPa Trend Height
m
Period
s
Dir
27/11:30pm 23.6 NE 6 7 1014.7 - 0.2 - - - - - - -
27/11:00pm 23.6 ENE 6 7 1014.9 - 0.2 - - - - - - -
27/10:30pm 23.9 E 7 9 1014.9 - 0.2 - - - - - - -
27/10:00pm 24.0 ENE 8 10 1015.1 - 0.2 - - - - - - -
27/09:30pm 24.2 ENE 8 10 1015.2 - 0.2 - - - - - - -
27/09:00pm 24.3 E 9 11 1015.3 - 0.2 - - - - - - -
27/08:30pm 24.2 E 9 12 1015.3 - 0.2 - - - - - - -
27/08:00pm 24.1 E 8 10 1015.1 - 0.2 - - - - - - -
27/07:30pm 24.3 E 8 11 1014.8 - 0.2 - - - - - - -
27/07:00pm 24.5 E 8 10 1014.5 - 0.2 - - - - - - -
27/06:30pm 24.3 E 9 11 1014.1 - 0.2 - - - - - - -
27/06:00pm 24.3 ENE 9 11 1013.8 - 0.2 - - - - - - -
27/05:30pm 24.9 ENE 10 14 1013.5 - 0.2 - - - - - - -
27/05:00pm 24.8 E 9 10 1013.5 - 0.2 - - - - - - -
27/04:30pm 24.9 E 11 13 1013.2 - 0.2 - - - - - - -
27/04:00pm 25.7 E 10 13 1013.3 - 0.2 - - - - - - -
27/03:30pm 26.4 E 10 13 1013.3 - 0.2 - - - - - - -
27/03:00pm 26.5 ESE 10 13 1013.2 - 0.2 - - - - - - -
27/02:30pm 27.1 E 11 14 1013.5 - 0.2 - - - - - - -
27/02:00pm 27.0 E 11 13 1013.6 - 0.2 - - - - - - -
27/01:30pm 26.6 ESE 10 12 1014.0 - 0.2 - - - - - - -
27/01:00pm 26.8 SE 12 14 1014.4 - 0.2 - - - - - - -
27/12:30pm 27.4 SE 10 12 1014.7 - 0.2 - - - - - - -
27/12:00pm 27.1 SE 10 12 1015.2 - 0.2 - - - - - - -
27/11:30am 28.2 SE 10 13 1015.5 - 0.2 - - - - - - -
27/11:00am 27.4 SE 12 14 1015.8 - 0.2 - - - - - - -
27/10:30am 26.5 SSE 13 16 1016.1 - 0.2 - - - - - - -
27/10:00am 27.0 SSE 14 16 1016.2 - 0.2 - - - - - - -
27/09:30am 26.4 SSE 13 15 1016.3 - 0.2 - - - - - - -
27/09:00am 25.8 SSE 12 15 1016.3 - 5.2 - - - - - - -
27/08:30am 25.3 SSE 13 15 1016.1 - 5.2 - - - - - - -
27/08:00am 24.6 SSE 11 14 1016.0 - 5.2 - - - - - - -
27/07:30am 23.1 S 6 7 1015.7 - 5.2 - - - - - - -
27/07:00am 22.8 S 5 7 1015.4 - 5.2 - - - - - - -
27/06:30am 22.3 S 6 8 1015.0 - 5.2 - - - - - - -
27/06:00am 22.3 S 7 8 1014.7 - 5.2 - - - - - - -
27/05:30am 22.4 SSW 5 7 1014.5 - 5.2 - - - - - - -
27/05:00am 22.5 SSW 6 7 1014.3 - 5.2 - - - - - - -
27/04:30am 23.0 S 6 11 1014.2 - 3.4 - - - - - - -
27/04:00am 23.4 SSW 5 7 1014.1 - 0.0 - - - - - - -
27/03:30am 23.4 SSW 3 4 1014.0 - 0.0 - - - - - - -
27/03:00am 23.3 SSW 5 6 1014.2 - 0.0 - - - - - - -
27/02:30am 23.2 SE 5 5 1014.3 - 0.0 - - - - - - -
27/02:00am 23.5 ESE 2 4 1014.4 - 0.0 - - - - - - -
27/01:30am 23.9 ESE 4 5 1014.8 - 0.0 - - - - - - -
27/01:00am 24.1 ESE 5 6 1015.1 - 0.0 - - - - - - -
27/12:30am 24.2 E 5 6 1015.1 - 0.0 - - - - - - -
27/12:00am 24.4 E 5 6 1015.5 - 0.0 - - - - - - -
 
Date/Time
EST
Temp
°C
Wind Pressure Rain since
9am
mm
Weather Cloud Vis
km
Sea
Height
m
Swell
Dir  Spd
kts
Gust
kts
hPa Trend Height
m
Period
s
Dir
26/11:30pm 24.5 E 6 7 1015.8 - 0.0 - - - - - - -
26/11:00pm 24.6 E 7 8 1015.8 - 0.0 - - - - - - -
26/10:30pm 24.6 ENE 6 8 1015.8 - 0.0 - - - - - - -
26/10:00pm 24.6 E 7 8 1016.1 - 0.0 - - - - - - -
26/09:30pm 24.6 E 7 8 1016.1 - 0.0 - - - - - - -
26/09:00pm 24.7 ENE 7 8 1015.8 - 0.0 - - - - - - -
26/08:30pm 24.8 ENE 8 9 1015.6 - 0.0 - - - - - - -
26/08:00pm 24.9 NE 7 8 1015.2 - 0.0 - - - - - - -
26/07:30pm 24.8 NE 8 10 1014.8 - 0.0 - - - - - - -
26/07:00pm 24.8 NE 9 10 1014.4 - 0.0 - - - - - - -
26/06:30pm 24.9 NE 8 10 1014.1 - 0.0 - - - - - - -
26/06:00pm 24.9 NNE 9 10 1013.5 - 0.0 - - - - - - -
26/05:30pm 25.3 NE 9 11 1013.0 - 0.0 - - - - - - -
26/05:00pm 25.6 NNE 10 12 1012.6 - 0.0 - - - - - - -
26/04:30pm 26.4 NNE 11 13 1012.3 - 0.0 - - - - - - -
26/04:00pm 27.4 NNE 13 15 1012.0 - 0.0 - - - - - - -
26/03:30pm 27.1 NNE 12 14 1012.0 - 0.0 - - - - - - -
26/03:00pm 27.8 NNE 12 14 1012.1 - 0.0 - - - - - - -
26/02:30pm 28.2 NNE 10 12 1012.4 - 0.0 - - - - - - -
26/02:00pm 27.3 NNE 10 12 1012.5 - 0.0 - - - - - - -
26/01:30pm 27.8 NNE 11 13 1012.8 - 0.0 - - - - - - -
26/01:00pm 27.2 NNE 11 13 1012.9 - 0.0 - - - - - - -
26/12:30pm 27.4 NNE 11 13 1013.6 - 0.0 - - - - - - -
26/12:00pm 27.4 NNE 11 14 1013.7 - 0.0 - - - - - - -
26/11:30am 27.5 NE 8 9 1014.5 - 0.0 - - - - - - -
26/11:00am 26.9 NE 7 8 1015.2 - 0.0 - - - - - - -
26/10:30am 26.9 NNE 7 9 1015.4 - 0.0 - - - - - - -
26/10:00am 26.9 NE 6 7 1015.4 - 0.0 - - - - - - -
26/09:30am 26.7 N 6 8 1015.6 - 0.0 - - - - - - -
26/09:00am 25.3 NNW 6 8 1016.1 - 0.0 - - - - - - -
26/08:30am 24.9 WNW 6 7 1015.8 - 0.0 - - - - - - -
26/08:00am 24.0 WNW 7 9 1015.6 - 0.0 - - - - - - -
26/07:30am 23.4 WNW 5 6 1015.3 - 0.0 - - - - - - -
26/07:00am 22.8 WNW 7 9 1015.1 - 0.0 - - - - - - -
26/06:30am 22.2 W 6 7 1014.8 - 0.0 - - - - - - -
26/06:00am 21.8 WNW 5 7 1014.5 - 0.0 - - - - - - -
26/05:30am 21.4 NW 5 6 1013.9 - 0.0 - - - - - - -
26/05:00am 21.1 WSW 4 5 1014.0 - 0.0 - - - - - - -
26/04:30am 21.3 W 5 6 1013.8 - 0.0 - - - - - - -
26/04:00am 21.5 NW 5 6 1013.3 - 0.0 - - - - - - -
26/03:30am 21.5 W 5 7 1013.3 - 0.0 - - - - - - -
26/03:00am 21.8 WNW 6 7 1013.5 - 0.0 - - - - - - -
26/02:30am 22.1 W 5 6 1013.7 - 0.0 - - - - - - -
26/02:00am 22.9 NNW 4 5 1013.7 - 0.0 - - - - - - -
26/01:30am 23.4 NNW 4 5 1014.2 - 0.0 - - - - - - -
26/01:00am 23.4 WNW 2 4 1014.4 - 0.0 - - - - - - -
26/12:30am 23.7 NW 3 5 1015.0 - 0.0 - - - - - - -
26/12:00am 23.7 N 5 6 1015.3 - 0.0 - - - - - - -
 
Date/Time
EST
Temp
°C
Wind Pressure Rain since
9am
mm
Weather Cloud Vis
km
Sea
Height
m
Swell
Dir  Spd
kts
Gust
kts
hPa Trend Height
m
Period
s
Dir
25/11:30pm 23.8 NNE 5 7 1015.6 - 0.0 - - - - - - -
25/11:00pm 23.9 NE 6 8 1016.1 - 0.0 - - - - - - -
25/10:30pm 24.1 NE 6 7 1016.3 - 0.0 - - - - - - -
25/10:00pm 24.1 NE 7 8 1016.4 - 0.0 - - - - - - -
25/09:30pm 24.1 ENE 7 9 1016.4 - 0.0 - - - - - - -
25/09:00pm 24.3 ENE 7 9 1016.5 - 0.0 - - - - - - -
25/08:30pm 24.3 E 8 10 1016.4 - 0.0 - - - - - - -
25/08:00pm 24.1 E 9 11 1016.0 - 0.0 - - - - - - -
25/07:30pm 24.2 E 8 10 1015.7 - 0.0 - - - - - - -
25/07:00pm 24.2 ESE 10 12 1015.4 - 0.0 - - - - - - -
25/06:30pm 24.3 ESE 10 12 1015.2 - 0.0 - - - - - - -
25/06:00pm 24.3 ESE 9 13 1015.1 - 0.0 - - - - - - -
25/05:30pm 24.5 ESE 9 12 1014.8 - 0.0 - - - - - - -
25/05:00pm 24.5 ESE 10 14 1014.6 - 0.0 - - - - - - -
25/04:30pm 24.8 ESE 10 13 1014.4 - 0.0 - - - - - - -
25/04:00pm 25.3 ESE 9 11 1014.2 - 0.0 - - - - - - -
25/03:30pm 25.6 ESE 11 13 1014.3 - 0.0 - - - - - - -
25/03:00pm 25.8 ESE 10 14 1014.4 - 0.0 - - - - - - -
25/02:30pm 27.0 SE 9 12 1014.5 - 0.0 - - - - - - -
25/02:00pm 26.8 SE 10 13 1014.6 - 0.0 - - - - - - -
25/01:30pm 26.9 SE 8 10 1015.0 - 0.0 - - - - - - -
25/01:00pm 26.0 SE 10 12 1015.4 - 0.0 - - - - - - -
25/12:30pm 26.4 SE 11 14 1015.7 - 0.0 - - - - - - -
25/12:00pm 25.5 SSE 13 15 1016.2 - 0.0 - - - - - - -
25/11:30am 25.4 SSE 15 17 1016.6 - 0.0 - - - - - - -
25/11:00am 26.4 SSE 15 19 1017.0 - 0.0 - - - - - - -
25/10:30am 26.4 SSE 10 14 1017.1 - 0.0 - - - - - - -

Other Formats:

Comma delimited format used in spreadsheet applications
http://www.bom.gov.au/fwo/IDQ60701/IDQ60701.94580.axf

JavaScript Object Notation format (JSON) in row-major order
http://www.bom.gov.au/fwo/IDQ60701/IDQ60701.94580.json